Manzanillo Airport, Mexico

7:41 PM CST on February 06, 2016 (GMT -0600)
Playa De Oro International | | Change Station
CLOSE
Current Station
Airport
Location: Manzanillo Airport,
Elevation: 26 ft
Nearby Weather Stations

Elev 26 ft 19.14 °N, 104.56 °W | Updated 48 minutes ago

Mostly Cloudy
Mostly Cloudy
81 °F
Feels Like 84 °F
N
6
Wind Variable Wind from West

Today
High -- | Low -- °F
--% Chance of Precip.
Yesterday
High -- | Low -- °F
Precip. -- in
Pressure 29.84 in
Visibility 10.0 miles
Clouds Mostly Cloudy 21000 ft
Heat Index 84 °F
Dew Point 70 °F
Humidity 70%
Rainfall 0.00 in
Snow Depth Not available.
7:31 AM 6:53 PM
Waning Crescent, 3% visible
METAR MMZO 070053Z 27005KT 10SM BKN210 27/21 A2984 RMK 8/004 HZY
Pressure 29.84 in
Visibility 10.0 miles
Clouds Mostly Cloudy 21000 ft
Heat Index 84 °F
Dew Point 70 °F
Humidity 70%
Rainfall 0.00 in
Snow Depth Not available.
7:31 AM 6:53 PM
Waning Crescent, 3% visible
METAR MMZO 070053Z 27005KT 10SM BKN210 27/21 A2984 RMK 8/004 HZY

10-Day Weather Forecast

No radar image for this location.
×

Almanac

Astronomy

Feb. 06, 2016 Rise Set
Actual Time
Civil Twilight
Nautical Twilight
Astronomical Twilight
Moon
Length of Visible Light
Length of Day
Tomorrow will be .
, % of the Moon is Illuminated

Today's Extremes

Country Highs Country Lows

Community

WunderPhotos

Upload Photos

1,891,123 photos uploaded!

WunderBlog® & News

Nearby

Air Quality

  Air Quality AQ Index Pollutant
Not available.

Snow Depth

Station Depth Elevation

Earthquake Activity

City Distance Mag. Time & Date
Minimum magnitude displayed is 2.5.

Coastal Water Temperatures

Place Temperature

Stations

Nearby Weather Stations

Station Location Temp. Windchill Dew Point Humidity Wind Precip. Elev Updated Type